Wetterdaten: Woche 10.08.20 - 16.08.20 (KW33)
Datum Zeit Temp. Aussen Temp. o. S. Temp +5cm Feuchte Auss Luftdruck Regen Sonnenschein Regendauer Solar Windben Empfang
10.08.2020 00:00 23,1 C 20,9 C 20,5 C 75 % 1015,2 hPa 0,0 l/m 0,00 h 0,00 h 0 W/m 1,3 km/h (1 Bft) 94,57 %
10.08.2020 01:00 22,2 C 20,5 C 20,0 C 78 % 1015,7 hPa 0,0 l/m 0,00 h 0,00 h 0 W/m 1,2 km/h (1 Bft) 95,38 %
10.08.2020 02:00 21,8 C 20,5 C 20,3 C 80 % 1015,7 hPa 0,0 l/m 0,00 h 0,00 h 0 W/m 3,0 km/h (1 Bft) 96,59 %
10.08.2020 03:00 21,3 C 19,0 C 19,0 C 81 % 1015,4 hPa 0,0 l/m 0,00 h 0,00 h 0 W/m 1,2 km/h (1 Bft) 92,09 %
10.08.2020 04:00 20,4 C 18,5 C 18,1 C 84 % 1015,3 hPa 0,0 l/m 0,00 h 0,00 h 0 W/m 0,1 km/h (0 Bft) 89,40 %
10.08.2020 05:00 19,7 C 17,9 C 17,7 C 86 % 1015,0 hPa 0,0 l/m 0,00 h 0,00 h 0 W/m 0,0 km/h (0 Bft) 93,52 %
10.08.2020 06:00 19,1 C 17,7 C 17,2 C 88 % 1014,8 hPa 0,0 l/m 0,00 h 0,00 h 10 W/m 0,0 km/h (0 Bft) 98,24 %
10.08.2020 07:00 19,3 C 19,5 C 18,5 C 90 % 1014,8 hPa 0,0 l/m 0,00 h 0,00 h 24 W/m 1,2 km/h (1 Bft) 97,31 %
10.08.2020 08:00 20,3 C 23,1 C 19,8 C 91 % 1014,9 hPa 0,0 l/m 0,33 h 0,00 h 138 W/m 1,3 km/h (1 Bft) 96,95 %
10.08.2020 09:00 24,6 C 30,2 C 32,1 C 82 % 1015,1 hPa 0,0 l/m 1,00 h 0,00 h 397 W/m 6,3 km/h (2 Bft) 98,09 %
10.08.2020 10:00 28,7 C 33,5 C 35,4 C 66 % 1015,1 hPa 0,0 l/m 1,00 h 0,00 h 584 W/m 8,5 km/h (2 Bft) 98,56 %
10.08.2020 11:00 31,1 C 35,7 C 29,4 C 57 % 1014,8 hPa 0,0 l/m 1,00 h 0,00 h 719 W/m 13,7 km/h (3 Bft) 95,54 %
10.08.2020 12:00 33,2 C 38,8 C 30,4 C 53 % 1014,6 hPa 0,0 l/m 1,00 h 0,00 h 804 W/m 8,8 km/h (2 Bft) 96,21 %
10.08.2020 13:00 34,8 C 40,3 C 32,3 C 49 % 1014,3 hPa 0,0 l/m 1,00 h 0,00 h 841 W/m 8,1 km/h (2 Bft) 98,73 %
10.08.2020 14:00 35,9 C 40,5 C 34,9 C 45 % 1014,0 hPa 0,0 l/m 1,00 h 0,00 h 858 W/m 10,0 km/h (2 Bft) 97,51 %
10.08.2020 15:00 36,2 C 39,0 C 34,0 C 46 % 1013,6 hPa 0,0 l/m 1,00 h 0,00 h 653 W/m 7,5 km/h (2 Bft) 96,88 %
10.08.2020 16:00 35,5 C 37,5 C 33,3 C 51 % 1013,3 hPa 0,0 l/m 0,87 h 0,00 h 512 W/m 6,6 km/h (2 Bft) 97,70 %
10.08.2020 17:00 36,0 C 37,7 C 33,3 C 49 % 1012,9 hPa 0,0 l/m 0,93 h 0,00 h 488 W/m 7,0 km/h (2 Bft) 95,52 %
10.08.2020 18:00 33,7 C 32,1 C 29,7 C 53 % 1012,6 hPa 0,0 l/m 0,43 h 0,00 h 178 W/m 6,5 km/h (2 Bft) 98,38 %
10.08.2020 19:00 31,9 C 30,3 C 28,6 C 56 % 1012,7 hPa 0,0 l/m 0,07 h 0,00 h 77 W/m 8,6 km/h (2 Bft) 99,15 %
10.08.2020 20:00 30,3 C 28,4 C 27,4 C 59 % 1013,3 hPa 0,0 l/m 0,00 h 0,00 h 25 W/m 8,1 km/h (2 Bft) 94,75 %
10.08.2020 21:00 28,8 C 26,4 C 25,8 C 63 % 1013,6 hPa 0,0 l/m 0,00 h 0,00 h 0 W/m 4,4 km/h (1 Bft) 97,90 %
10.08.2020 22:00 27,4 C 25,3 C 24,5 C 67 % 1014,0 hPa 0,0 l/m 0,00 h 0,00 h 0 W/m 4,3 km/h (1 Bft) 98,65 %
10.08.2020 23:00 26,3 C 24,2 C 23,7 C 71 % 1014,1 hPa 0,0 l/m 0,00 h 0,00 h 0 W/m 3,9 km/h (1 Bft) 97,37 %
11.08.2020 00:00 25,2 C 22,7 C 22,3 C 74 % 1014,4 hPa 0,0 l/m 0,00 h 0,00 h 0 W/m 0,9 km/h (0 Bft) 97,11 %
11.08.2020 01:00 23,9 C 21,9 C 21,5 C 78 % 1014,7 hPa 0,0 l/m 0,00 h 0,00 h 0 W/m 1,3 km/h (1 Bft) 97,86 %
11.08.2020 02:00 23,0 C 21,1 C 20,9 C 81 % 1014,4 hPa 0,0 l/m 0,00 h 0,00 h 0 W/m 1,0 km/h (0 Bft) 97,86 %
11.08.2020 03:00 22,3 C 20,7 C 20,4 C 84 % 1014,5 hPa 0,0 l/m 0,00 h 0,00 h 0 W/m 0,7 km/h (0 Bft) 95,94 %
11.08.2020 04:00 21,8 C 20,0 C 19,8 C 86 % 1014,3 hPa 0,0 l/m 0,00 h 0,00 h 0 W/m 0,2 km/h (0 Bft) 98,18 %
11.08.2020 05:00 21,2 C 19,4 C 19,4 C 87 % 1014,4 hPa 0,0 l/m 0,00 h 0,00 h 0 W/m 0,2 km/h (0 Bft) 98,15 %
11.08.2020 06:00 20,7 C 19,4 C 19,3 C 89 % 1014,4 hPa 0,0 l/m 0,00 h 0,00 h 13 W/m 0,2 km/h (0 Bft) 96,68 %
11.08.2020 07:00 20,6 C 20,4 C 19,8 C 91 % 1014,5 hPa 0,0 l/m 0,00 h 0,00 h 35 W/m 0,0 km/h (0 Bft) 96,90 %
11.08.2020 08:00 21,6 C 24,8 C 21,6 C 91 % 1014,7 hPa 0,0 l/m 0,30 h 0,00 h 150 W/m 2,4 km/h (1 Bft) 97,63 %
11.08.2020 09:00 25,8 C 30,3 C 30,8 C 75 % 1014,9 hPa 0,0 l/m 1,00 h 0,00 h 376 W/m 13,7 km/h (3 Bft) 96,95 %
11.08.2020 10:00 29,6 C 32,8 C 33,1 C 62 % 1015,0 hPa 0,0 l/m 1,00 h 0,00 h 512 W/m 15,0 km/h (3 Bft) 96,35 %
11.08.2020 11:00 31,1 C 33,9 C 30,1 C 59 % 1015,0 hPa 0,0 l/m 0,77 h 0,00 h 507 W/m 11,3 km/h (2 Bft) 90,67 %
11.08.2020 12:00 32,4 C 34,9 C 31,3 C 56 % 1014,8 hPa 0,0 l/m 0,63 h 0,00 h 485 W/m 11,4 km/h (2 Bft) 98,48 %
11.08.2020 13:00 33,5 C 37,7 C 32,8 C 53 % 1014,6 hPa 0,0 l/m 0,90 h 0,00 h 720 W/m 13,6 km/h (3 Bft) 97,32 %
11.08.2020 14:00 35,5 C 39,0 C 34,6 C 47 % 1014,1 hPa 0,0 l/m 1,00 h 0,00 h 733 W/m 18,4 km/h (3 Bft) 95,79 %
11.08.2020 15:00 35,8 C 38,1 C 34,3 C 46 % 1013,6 hPa 0,0 l/m 1,00 h 0,00 h 621 W/m 21,0 km/h (4 Bft) 98,98 %
11.08.2020 16:00 34,9 C 35,5 C 33,1 C 48 % 1013,8 hPa 0,0 l/m 0,77 h 0,00 h 478 W/m 15,7 km/h (3 Bft) 98,59 %
11.08.2020 17:00 32,2 C 31,8 C 30,1 C 55 % 1013,8 hPa 0,0 l/m 0,57 h 0,00 h 263 W/m 8,4 km/h (2 Bft) 95,95 %
11.08.2020 18:00 30,4 C 28,8 C 27,5 C 60 % 1013,4 hPa 0,0 l/m 0,00 h 0,00 h 71 W/m 4,4 km/h (1 Bft) 98,76 %
11.08.2020 19:00 29,7 C 28,2 C 26,9 C 62 % 1013,4 hPa 0,0 l/m 0,00 h 0,00 h 38 W/m 1,3 km/h (1 Bft) 98,52 %
11.08.2020 20:00 28,6 C 26,4 C 25,0 C 68 % 1013,6 hPa 0,0 l/m 0,00 h 0,00 h 11 W/m 2,7 km/h (1 Bft) 96,29 %
11.08.2020 21:00 27,0 C 24,7 C 24,3 C 68 % 1014,6 hPa 0,0 l/m 0,00 h 0,30 h 0 W/m 26,8 km/h (4 Bft) 98,13 %
11.08.2020 22:00 24,5 C 21,4 C 21,2 C 78 % 1014,7 hPa 0,2 l/m 0,00 h 0,57 h 0 W/m 16,5 km/h (3 Bft) 97,37 %
11.08.2020 23:00 23,5 C 20,2 C 20,3 C 87 % 1015,3 hPa 0,4 l/m 0,00 h 0,67 h 0 W/m 0,9 km/h (0 Bft) 97,64 %
12.08.2020 00:00 22,8 C 20,3 C 20,3 C 91 % 1015,5 hPa 0,0 l/m 0,00 h 0,00 h 0 W/m 0,2 km/h (0 Bft) 93,55 %
12.08.2020 01:00 22,2 C 20,0 C 20,0 C 93 % 1015,2 hPa 0,0 l/m 0,00 h 0,00 h 0 W/m 1,3 km/h (1 Bft) 97,72 %
12.08.2020 02:00 21,8 C 19,9 C 19,7 C 94 % 1014,9 hPa 0,0 l/m 0,00 h 0,00 h 0 W/m 0,5 km/h (0 Bft) 97,51 %
12.08.2020 03:00 21,4 C 19,8 C 19,4 C 95 % 1015,2 hPa 0,0 l/m 0,00 h 0,00 h 0 W/m 1,2 km/h (1 Bft) 97,72 %
12.08.2020 04:00 21,1 C 19,2 C 19,1 C 95 % 1014,8 hPa 0,0 l/m 0,00 h 0,00 h 0 W/m 0,2 km/h (0 Bft) 97,05 %
12.08.2020 05:00 20,8 C 18,9 C 18,8 C 95 % 1014,7 hPa 0,0 l/m 0,00 h 0,00 h 0 W/m 0,0 km/h (0 Bft) 97,79 %
12.08.2020 06:00 20,6 C 19,4 C 18,8 C 96 % 1014,8 hPa 0,0 l/m 0,23 h 0,00 h 21 W/m 0,0 km/h (0 Bft) 98,04 %
12.08.2020 07:00 21,1 C 21,7 C 20,8 C 97 % 1014,9 hPa 0,0 l/m 0,10 h 0,17 h 70 W/m 3,6 km/h (1 Bft) 96,51 %
12.08.2020 08:00 22,5 C 24,1 C 22,1 C 91 % 1015,1 hPa 0,0 l/m 0,40 h 0,00 h 181 W/m 12,7 km/h (3 Bft) 98,01 %
12.08.2020 09:00 24,4 C 26,6 C 26,6 C 83 % 1015,2 hPa 0,0 l/m 0,93 h 0,00 h 338 W/m 15,6 km/h (3 Bft) 97,78 %
12.08.2020 10:00 25,4 C 28,5 C 28,5 C 81 % 1015,1 hPa 0,0 l/m 0,90 h 0,00 h 485 W/m 17,5 km/h (3 Bft) 97,72 %
12.08.2020 11:00 26,9 C 31,1 C 26,4 C 77 % 1015,0 hPa 0,0 l/m 0,97 h 0,00 h 645 W/m 17,8 km/h (3 Bft) 95,93 %
12.08.2020 12:00 29,0 C 33,6 C 27,8 C 68 % 1014,8 hPa 0,0 l/m 1,00 h 0,00 h 771 W/m 20,4 km/h (4 Bft) 99,12 %
12.08.2020 13:00 30,3 C 34,7 C 29,4 C 62 % 1014,5 hPa 0,0 l/m 1,00 h 0,00 h 820 W/m 20,8 km/h (4 Bft) 97,95 %
12.08.2020 14:00 32,0 C 36,4 C 31,4 C 59 % 1013,9 hPa 0,0 l/m 1,00 h 0,00 h 813 W/m 13,3 km/h (3 Bft) 94,24 %
12.08.2020 15:00 33,0 C 37,3 C 31,9 C 56 % 1013,4 hPa 0,0 l/m 1,00 h 0,00 h 754 W/m 13,7 km/h (3 Bft) 99,30 %
12.08.2020 16:00 33,5 C 35,4 C 31,7 C 55 % 1012,9 hPa 0,0 l/m 0,80 h 0,00 h 539 W/m 15,4 km/h (3 Bft) 99,07 %
12.08.2020 17:00 32,3 C 31,1 C 29,6 C 58 % 1012,7 hPa 0,0 l/m 0,00 h 0,00 h 153 W/m 5,6 km/h (1 Bft) 95,31 %
12.08.2020 18:00 31,5 C 30,5 C 28,3 C 63 % 1012,2 hPa 0,0 l/m 0,00 h 0,00 h 116 W/m 1,0 km/h (0 Bft) 97,79 %
12.08.2020 19:00 30,7 C 29,0 C 27,9 C 62 % 1012,3 hPa 0,0 l/m 0,00 h 0,00 h 66 W/m 11,7 km/h (2 Bft) 98,43 %
12.08.2020 20:00 27,5 C 24,8 C 24,9 C 71 % 1012,6 hPa 0,0 l/m 0,00 h 0,00 h 20 W/m 17,1 km/h (3 Bft) 97,39 %
12.08.2020 21:00 24,6 C 22,9 C 23,0 C 75 % 1013,3 hPa 0,0 l/m 0,00 h 0,00 h 9 W/m 15,9 km/h (3 Bft) 96,41 %
12.08.2020 22:00 23,6 C 22,3 C 22,3 C 79 % 1013,5 hPa 0,0 l/m 0,00 h 0,00 h 0 W/m 14,6 km/h (3 Bft) 97,69 %
12.08.2020 23:00 23,0 C 21,6 C 21,6 C 81 % 1013,2 hPa 0,0 l/m 0,00 h 0,00 h 0 W/m 15,3 km/h (3 Bft) 98,65 %
13.08.2020 00:00 22,3 C 20,7 C 20,9 C 84 % 1012,8 hPa 0,0 l/m 0,00 h 0,00 h 0 W/m 9,5 km/h (2 Bft) 93,09 %
13.08.2020 01:00 21,8 C 20,6 C 20,6 C 85 % 1012,6 hPa 0,0 l/m 0,00 h 0,00 h 0 W/m 7,7 km/h (2 Bft) 97,55 %
13.08.2020 02:00 21,6 C 20,1 C 20,6 C 86 % 1011,9 hPa 0,0 l/m 0,00 h 0,00 h 0 W/m 2,2 km/h (1 Bft) 98,08 %
13.08.2020 03:00 21,3 C 20,3 C 20,4 C 87 % 1011,9 hPa 0,0 l/m 0,00 h 0,00 h 0 W/m 0,4 km/h (0 Bft) 96,23 %
13.08.2020 04:00 21,5 C 20,1 C 20,0 C 87 % 1012,3 hPa 4,6 l/m 0,00 h 0,37 h 0 W/m 10,2 km/h (2 Bft) 97,13 %
13.08.2020 05:00 20,8 C 18,3 C 18,3 C 93 % 1012,4 hPa 1,4 l/m 0,00 h 0,83 h 0 W/m 7,2 km/h (2 Bft) 98,29 %
13.08.2020 06:00 20,4 C 18,7 C 18,4 C 96 % 1012,3 hPa 0,0 l/m 0,00 h 0,13 h 7 W/m 4,2 km/h (1 Bft) 97,13 %
13.08.2020 07:00 20,5 C 19,3 C 18,8 C 96 % 1011,9 hPa 0,0 l/m 0,00 h 0,00 h 27 W/m 1,4 km/h (1 Bft) 97,65 %
13.08.2020 08:00 21,1 C 20,6 C 19,6 C 97 % 1011,8 hPa 0,0 l/m 0,00 h 0,00 h 73 W/m 0,4 km/h (0 Bft) 97,23 %
13.08.2020 09:00 21,8 C 22,3 C 20,0 C 95 % 1012,0 hPa 0,0 l/m 0,00 h 0,00 h 128 W/m 2,4 km/h (1 Bft) 97,72 %
13.08.2020 10:00 23,1 C 25,2 C 21,4 C 89 % 1011,9 hPa 0,0 l/m 0,13 h 0,00 h 249 W/m 4,7 km/h (1 Bft) 98,08 %
13.08.2020 11:00 25,9 C 31,7 C 22,9 C 81 % 1012,1 hPa 0,2 l/m 0,90 h 0,00 h 666 W/m 10,8 km/h (2 Bft) 96,17 %
13.08.2020 12:00 29,3 C 35,1 C 26,7 C 69 % 1011,8 hPa 0,0 l/m 1,00 h 0,00 h 759 W/m 11,3 km/h (2 Bft) 98,57 %
13.08.2020 13:00 31,2 C 36,0 C 28,6 C 64 % 1011,5 hPa 0,0 l/m 1,00 h 0,00 h 771 W/m 12,8 km/h (3 Bft) 99,15 %
13.08.2020 14:00 32,3 C 36,7 C 30,6 C 58 % 1011,2 hPa 0,0 l/m 1,00 h 0,00 h 759 W/m 13,9 km/h (3 Bft) 94,30 %
13.08.2020 15:00 33,3 C 37,1 C 31,1 C 51 % 1011,0 hPa 0,0 l/m 0,93 h 0,00 h 644 W/m 11,3 km/h (2 Bft) 98,58 %
13.08.2020 16:00 33,7 C 35,5 C 31,0 C 52 % 1010,5 hPa 0,0 l/m 0,57 h 0,00 h 429 W/m 8,7 km/h (2 Bft) 98,57 %
13.08.2020 17:00 32,7 C 29,7 C 28,1 C 54 % 1010,4 hPa 0,0 l/m 0,00 h 0,00 h 41 W/m 15,0 km/h (3 Bft) 96,37 %
13.08.2020 18:00 26,9 C 24,3 C 24,1 C 69 % 1010,7 hPa 0,0 l/m 0,00 h 0,20 h 18 W/m 11,1 km/h (2 Bft) 97,56 %
13.08.2020 19:00 25,4 C 23,7 C 22,8 C 81 % 1010,8 hPa 0,0 l/m 0,00 h 0,13 h 38 W/m 0,3 km/h (0 Bft) 98,16 %
13.08.2020 20:00 24,8 C 23,5 C 22,9 C 80 % 1011,6 hPa 0,0 l/m 0,00 h 0,00 h 16 W/m 1,7 km/h (1 Bft) 95,80 %
13.08.2020 21:00 24,0 C 22,0 C 21,5 C 81 % 1011,4 hPa 0,0 l/m 0,00 h 0,00 h 0 W/m 1,3 km/h (1 Bft) 98,50 %
13.08.2020 22:00 23,1 C 20,8 C 20,7 C 86 % 1012,0 hPa 0,0 l/m 0,00 h 0,00 h 0 W/m 0,0 km/h (0 Bft) 96,58 %
13.08.2020 23:00 22,5 C 21,3 C 20,8 C 88 % 1012,4 hPa 0,0 l/m 0,00 h 0,00 h 0 W/m 0,1 km/h (0 Bft) 97,08 %
14.08.2020 00:00 22,4 C 20,7 C 20,5 C 90 % 1012,5 hPa 0,0 l/m 0,00 h 0,00 h 0 W/m 0,0 km/h (0 Bft) 99,66 %
14.08.2020 01:00 22,0 C 20,2 C 19,8 C 91 % 1012,5 hPa 0,0 l/m 0,00 h 0,00 h 0 W/m 0,0 km/h (0 Bft) 95,80 %
14.08.2020 02:00 21,3 C 19,3 C 18,9 C 91 % 1012,2 hPa 0,0 l/m 0,00 h 0,00 h 0 W/m 0,0 km/h (0 Bft) 97,01 %
14.08.2020 03:00 20,5 C 18,6 C 18,3 C 91 % 1012,0 hPa 0,0 l/m 0,00 h 0,00 h 0 W/m 0,0 km/h (0 Bft) 99,57 %
14.08.2020 04:00 20,1 C 18,5 C 18,3 C 93 % 1011,8 hPa 0,0 l/m 0,00 h 0,00 h 0 W/m 0,0 km/h (0 Bft) 94,73 %
14.08.2020 05:00 19,8 C 18,2 C 17,9 C 94 % 1011,9 hPa 0,0 l/m 0,00 h 0,00 h 0 W/m 0,0 km/h (0 Bft) 96,80 %
14.08.2020 06:00 19,6 C 18,7 C 18,2 C 95 % 1012,3 hPa 0,0 l/m 0,00 h 0,00 h 0 W/m 0,0 km/h (0 Bft) 98,49 %
14.08.2020 07:00 19,7 C 19,7 C 18,9 C 96 % 1012,7 hPa 0,0 l/m 0,00 h 0,00 h 14 W/m 0,0 km/h (0 Bft) 96,90 %
14.08.2020 08:00 20,4 C 21,7 C 20,7 C 91 % 1012,6 hPa 0,0 l/m 0,00 h 0,00 h 80 W/m 1,4 km/h (1 Bft) 97,21 %
14.08.2020 09:00 23,3 C 26,4 C 26,5 C 79 % 1012,8 hPa 0,0 l/m 0,47 h 0,00 h 300 W/m 6,8 km/h (2 Bft) 97,58 %
14.08.2020 10:00 25,9 C 28,5 C 28,6 C 72 % 1013,0 hPa 0,0 l/m 0,50 h 0,00 h 361 W/m 9,4 km/h (2 Bft) 98,29 %
14.08.2020 11:00 28,0 C 31,8 C 27,6 C 66 % 1013,3 hPa 0,0 l/m 0,77 h 0,00 h 536 W/m 10,5 km/h (2 Bft) 97,08 %
14.08.2020 12:00 29,3 C 33,1 C 27,9 C 60 % 1013,2 hPa 0,0 l/m 0,80 h 0,00 h 706 W/m 14,5 km/h (3 Bft) 96,98 %
14.08.2020 13:00 28,2 C 28,3 C 26,9 C 64 % 1013,2 hPa 0,0 l/m 0,03 h 0,00 h 259 W/m 7,6 km/h (2 Bft) 98,43 %
14.08.2020 14:00 28,2 C 29,2 C 27,3 C 64 % 1012,8 hPa 0,0 l/m 0,07 h 0,00 h 284 W/m 8,7 km/h (2 Bft) 97,29 %
14.08.2020 15:00 29,2 C 32,2 C 28,3 C 59 % 1012,3 hPa 0,0 l/m 0,57 h 0,00 h 581 W/m 14,8 km/h (3 Bft) 97,29 %
14.08.2020 16:00 30,9 C 33,7 C 29,3 C 55 % 1012,0 hPa 0,0 l/m 0,90 h 0,00 h 650 W/m 16,4 km/h (3 Bft) 98,36 %
14.08.2020 17:00 31,0 C 32,6 C 28,8 C 56 % 1011,8 hPa 0,0 l/m 0,83 h 0,00 h 480 W/m 14,2 km/h (3 Bft) 97,58 %
14.08.2020 18:00 30,0 C 29,7 C 27,3 C 60 % 1012,0 hPa 0,0 l/m 0,67 h 0,00 h 275 W/m 8,2 km/h (2 Bft) 99,33 %
14.08.2020 19:00 28,9 C 27,7 C 26,5 C 61 % 1012,2 hPa 0,0 l/m 0,43 h 0,00 h 99 W/m 7,5 km/h (2 Bft) 95,44 %
14.08.2020 20:00 27,5 C 25,7 C 24,7 C 66 % 1012,6 hPa 0,0 l/m 0,77 h 0,00 h 43 W/m 0,7 km/h (0 Bft) 97,72 %
14.08.2020 21:00 26,0 C 23,7 C 23,0 C 71 % 1013,1 hPa 0,0 l/m 0,00 h 0,00 h 6 W/m 0,1 km/h (0 Bft) 99,86 %
14.08.2020 22:00 24,8 C 23,0 C 22,5 C 76 % 1013,9 hPa 0,0 l/m 0,00 h 0,00 h 0 W/m 0,1 km/h (0 Bft) 95,73 %
14.08.2020 23:00 24,0 C 22,0 C 21,6 C 79 % 1014,0 hPa 0,0 l/m 0,00 h 0,00 h 0 W/m 0,0 km/h (0 Bft) 97,66 %
15.08.2020 00:00 23,0 C 21,4 C 20,9 C 80 % 1014,2 hPa 0,0 l/m 0,00 h 0,00 h 0 W/m 0,0 km/h (0 Bft) 99,63 %
15.08.2020 01:00 22,4 C 21,0 C 20,3 C 82 % 1014,4 hPa 0,0 l/m 0,00 h 0,00 h 0 W/m 0,0 km/h (0 Bft) 95,44 %
15.08.2020 02:00 22,2 C 20,5 C 20,2 C 86 % 1014,2 hPa 0,0 l/m 0,00 h 0,00 h 0 W/m 0,2 km/h (0 Bft) 97,01 %
15.08.2020 03:00 21,5 C 19,5 C 19,3 C 87 % 1014,1 hPa 0,0 l/m 0,00 h 0,00 h 0 W/m 0,1 km/h (0 Bft) 99,29 %
15.08.2020 04:00 20,8 C 19,2 C 19,3 C 90 % 1014,0 hPa 0,0 l/m 0,00 h 0,00 h 0 W/m 0,1 km/h (0 Bft) 96,48 %
15.08.2020 05:00 20,4 C 18,6 C 18,5 C 92 % 1013,9 hPa 0,0 l/m 0,00 h 0,00 h 0 W/m 0,0 km/h (0 Bft) 97,29 %
15.08.2020 06:00 20,0 C 18,3 C 18,3 C 93 % 1014,3 hPa 0,0 l/m 0,00 h 0,00 h 7 W/m 0,0 km/h (0 Bft) 97,60 %
15.08.2020 07:00 19,9 C 18,9 C 18,9 C 95 % 1014,8 hPa 0,0 l/m 0,00 h 0,00 h 22 W/m 0,2 km/h (0 Bft) 96,94 %
15.08.2020 08:00 20,4 C 20,9 C 20,3 C 97 % 1015,1 hPa 0,0 l/m 0,00 h 0,00 h 104 W/m 0,0 km/h (0 Bft) 99,00 %
15.08.2020 09:00 21,6 C 24,6 C 24,5 C 95 % 1015,3 hPa 0,0 l/m 0,63 h 0,00 h 262 W/m 1,0 km/h (0 Bft) 96,09 %
15.08.2020 10:00 24,1 C 28,4 C 28,1 C 85 % 1015,3 hPa 0,0 l/m 1,00 h 0,00 h 477 W/m 2,9 km/h (1 Bft) 97,85 %
15.08.2020 11:00 26,6 C 31,7 C 26,4 C 76 % 1015,2 hPa 0,0 l/m 0,97 h 0,00 h 589 W/m 3,2 km/h (1 Bft) 98,42 %
15.08.2020 12:00 28,3 C 32,5 C 27,2 C 69 % 1015,0 hPa 0,0 l/m 0,80 h 0,00 h 608 W/m 4,1 km/h (1 Bft) 96,01 %
15.08.2020 13:00 28,7 C 31,6 C 27,4 C 69 % 1014,8 hPa 0,0 l/m 0,43 h 0,00 h 480 W/m 1,7 km/h (1 Bft) 97,00 %
15.08.2020 14:00 29,8 C 32,6 C 28,5 C 65 % 1014,4 hPa 0,0 l/m 0,57 h 0,00 h 507 W/m 3,9 km/h (1 Bft) 98,51 %
15.08.2020 15:00 26,5 C 22,9 C 22,8 C 74 % 1014,3 hPa 12,8 l/m 0,00 h 0,60 h 41 W/m 8,7 km/h (2 Bft) 97,94 %
15.08.2020 16:00 20,2 C 18,2 C 18,0 C 94 % 1015,3 hPa 30,0 l/m 0,00 h 1,00 h 11 W/m 4,8 km/h (1 Bft) 96,09 %
15.08.2020 17:00 19,5 C 18,1 C 18,0 C 97 % 1014,7 hPa 1,6 l/m 0,00 h 1,00 h 22 W/m 1,7 km/h (1 Bft) 98,08 %
15.08.2020 18:00 19,9 C 19,1 C 18,8 C 99 % 1014,1 hPa 1,2 l/m 0,00 h 0,90 h 95 W/m 1,3 km/h (1 Bft) 98,82 %
15.08.2020 19:00 20,6 C 20,0 C 19,4 C 100 % 1013,8 hPa 0,0 l/m 0,00 h 0,00 h 70 W/m 0,0 km/h (0 Bft) 95,86 %
15.08.2020 20:00 21,0 C 19,6 C 19,2 C 100 % 1013,8 hPa 0,0 l/m 0,00 h 0,00 h 17 W/m 0,0 km/h (0 Bft) 97,72 %
15.08.2020 21:00 20,6 C 19,0 C 18,9 C 100 % 1014,0 hPa 0,0 l/m 0,00 h 0,00 h 0 W/m 0,0 km/h (0 Bft) 99,15 %
15.08.2020 22:00 20,3 C 18,9 C 18,9 C 100 % 1013,9 hPa 0,0 l/m 0,00 h 0,00 h 0 W/m 0,0 km/h (0 Bft) 95,66 %
15.08.2020 23:00 20,3 C 19,2 C 18,9 C 100 % 1013,7 hPa 0,0 l/m 0,00 h 0,00 h 0 W/m 0,0 km/h (0 Bft) 97,36 %
16.08.2020 00:00 20,2 C 18,6 C 18,2 C 100 % 1013,6 hPa 0,0 l/m 0,00 h 0,00 h 0 W/m 0,0 km/h (0 Bft) 100,00 %
16.08.2020 01:00 19,7 C 18,3 C 18,1 C 100 % 1013,2 hPa 0,0 l/m 0,00 h 0,00 h 0 W/m 0,0 km/h (0 Bft) 98,54 %
16.08.2020 02:00 19,6 C 18,3 C 18,0 C 100 % 1012,9 hPa 0,2 l/m 0,00 h 0,00 h 0 W/m 0,0 km/h (0 Bft) 100,00 %
16.08.2020 03:00 19,3 C 17,8 C 17,8 C 100 % 1012,5 hPa 0,0 l/m 0,00 h 0,00 h 0 W/m 0,0 km/h (0 Bft) 99,71 %
16.08.2020 04:00 19,1 C 17,8 C 17,5 C 100 % 1012,3 hPa 0,0 l/m 0,00 h 0,00 h 0 W/m 0,0 km/h (0 Bft) 97,28 %
16.08.2020 05:00 19,1 C 18,2 C 17,8 C 100 % 1012,2 hPa 0,0 l/m 0,00 h 0,00 h 0 W/m 0,0 km/h (0 Bft) 98,10 %
16.08.2020 06:00 19,2 C 18,1 C 17,8 C 100 % 1012,1 hPa 0,0 l/m 0,00 h 0,00 h 8 W/m 0,0 km/h (0 Bft) 96,69 %
16.08.2020 07:00 19,4 C 18,7 C 18,2 C 100 % 1012,1 hPa 0,0 l/m 0,00 h 0,00 h 32 W/m 0,0 km/h (0 Bft) 97,20 %
16.08.2020 08:00 20,0 C 19,6 C 19,0 C 100 % 1011,9 hPa 0,0 l/m 0,23 h 0,00 h 108 W/m 2,8 km/h (1 Bft) 98,13 %
16.08.2020 09:00 21,3 C 25,5 C 23,6 C 100 % 1011,8 hPa 0,0 l/m 1,00 h 0,00 h 409 W/m 11,5 km/h (2 Bft) 96,77 %
16.08.2020 10:00 23,9 C 29,6 C 27,0 C 92 % 1011,6 hPa 0,0 l/m 1,00 h 0,00 h 567 W/m 14,9 km/h (3 Bft) 97,80 %
16.08.2020 11:00 26,9 C 33,0 C 25,1 C 79 % 1011,4 hPa 0,0 l/m 1,00 h 0,00 h 759 W/m 10,9 km/h (2 Bft) 97,43 %
16.08.2020 12:00 29,2 C 35,4 C 26,4 C 71 % 1011,0 hPa 0,0 l/m 1,00 h 0,00 h 812 W/m 11,8 km/h (2 Bft) 97,33 %
16.08.2020 13:00 30,3 C 34,9 C 28,3 C 63 % 1010,6 hPa 0,0 l/m 1,00 h 0,00 h 761 W/m 14,7 km/h (3 Bft) 97,90 %
16.08.2020 14:00 31,3 C 35,9 C 29,4 C 60 % 1010,2 hPa 0,0 l/m 1,00 h 0,00 h 847 W/m 12,6 km/h (3 Bft) 98,64 %
16.08.2020 15:00 31,9 C 35,6 C 29,2 C 58 % 1009,5 hPa 0,0 l/m 0,90 h 0,00 h 685 W/m 10,3 km/h (2 Bft) 97,14 %
16.08.2020 16:00 31,5 C 31,5 C 27,9 C 56 % 1008,8 hPa 0,0 l/m 0,40 h 0,00 h 275 W/m 8,1 km/h (2 Bft) 97,45 %
16.08.2020 17:00 29,3 C 25,9 C 24,7 C 60 % 1009,0 hPa 0,4 l/m 0,00 h 0,20 h 41 W/m 16,9 km/h (3 Bft) 97,73 %
16.08.2020 18:00 24,8 C 21,1 C 20,1 C 79 % 1008,4 hPa 0,0 l/m 0,00 h 0,23 h 80 W/m 6,1 km/h (2 Bft) 97,72 %
16.08.2020 19:00 24,1 C 22,9 C 20,7 C 84 % 1008,7 hPa 0,0 l/m 0,00 h 0,00 h 65 W/m 0,2 km/h (0 Bft) 98,29 %
16.08.2020 20:00 23,8 C 22,4 C 20,4 C 80 % 1009,6 hPa 0,0 l/m 0,00 h 0,00 h 20 W/m 3,4 km/h (1 Bft) 96,04 %
16.08.2020 21:00 22,8 C 20,8 C 19,4 C 81 % 1009,9 hPa 0,0 l/m 0,00 h 0,00 h 0 W/m 2,5 km/h (1 Bft) 97,92 %
16.08.2020 22:00 21,6 C 19,6 C 18,8 C 85 % 1010,1 hPa 0,0 l/m 0,00 h 0,00 h 0 W/m 2,2 km/h (1 Bft) 98,93 %
16.08.2020 23:00 20,6 C 18,7 C 17,8 C 87 % 1010,2 hPa 0,0 l/m 0,00 h 0,00 h 0 W/m 0,6 km/h (0 Bft) 95,35 %
Min-Datum _ 10.08.20 10.08.20 10.08.20 10.08.20 16.08.20 - - - - 10.08.20 10.08.20
_ Min-Zeit 06:48 06:04 05:54 14:42 18:18 - - - - 00:02 00:02
Minimum _ 18,9 C 17,2 C 17,2 C 42 % 1008,2 hPa - - - - 0,0 km/h (0 Bft) 4,76 %
Max-Datum _ 10.08.20 10.08.20 10.08.20 15.08.20 10.08.20 15.08.20 10.08.20 15.08.20 16.08.20 11.08.20 10.08.20
_ Max-Zeit 15:24 13:38 09:50 19:16 01:54 16:00 12:08 18:08 13:38 21:28 00:30
Maximum _ 36,5 C 41,7 C 36,7 C 100 % 1015,9 hPa 30,0 l/m 0,07 h 0,07 h 1097 W/m 64,4 km/h
O-SO (8 Bft)
100,00 %
Durchschnitt _ 25,3 C 25,5 C 23,7 C 78 % 1013,2 hPa #53,0 l/m #50:10 h #7:18 h 332 W/m 5,8 km/h (2 Bft) 97,29 %
© 2020 W. Hausmann